createdAt,value
2022-10-15T00:01:14.178Z,13.23
2022-10-15T00:05:30.376Z,13.22
2022-10-15T00:09:46.392Z,12.90
2022-10-15T00:14:02.299Z,12.91
2022-10-15T00:18:18.248Z,13.08
2022-10-15T00:22:34.292Z,13.35
2022-10-15T00:26:50.293Z,13.20
2022-10-15T00:31:12.201Z,12.82
2022-10-15T00:35:28.183Z,12.81
2022-10-15T00:39:44.414Z,12.75
2022-10-15T00:44:26.898Z,12.50
2022-10-15T00:48:43.535Z,12.40
2022-10-15T00:53:10.502Z,12.02
2022-10-15T00:57:27.170Z,12.07
2022-10-15T01:01:43.283Z,12.46
2022-10-15T01:05:59.302Z,12.46
2022-10-15T01:10:16.392Z,12.25
2022-10-15T01:14:52.574Z,12.34
2022-10-15T01:19:28.121Z,12.23
2022-10-15T01:24:14.809Z,12.22
2022-10-15T01:28:54.515Z,12.29
2022-10-15T01:33:19.383Z,12.16
2022-10-15T01:37:39.853Z,11.75
2022-10-15T01:42:01.409Z,12.23
2022-10-15T01:46:26.820Z,11.99
2022-10-15T01:50:49.338Z,12.23
2022-10-15T01:55:06.995Z,12.51
2022-10-15T01:59:29.933Z,12.32
2022-10-15T02:03:50.009Z,12.16
2022-10-15T02:08:30.909Z,12.02
2022-10-15T02:12:52.731Z,11.85
2022-10-15T02:17:12.384Z,12.19
2022-10-15T02:21:44.674Z,11.71
2022-10-15T02:26:00.951Z,12.21
2022-10-15T02:30:17.394Z,12.12
2022-10-15T02:34:34.505Z,11.99
2022-10-15T02:38:51.483Z,12.29
2022-10-15T02:43:09.443Z,12.19
2022-10-15T02:51:46.302Z,11.97
2022-10-15T02:56:02.243Z,12.19
2022-10-15T03:00:18.712Z,11.94
2022-10-15T03:04:34.751Z,12.06
2022-10-15T03:08:50.721Z,11.56
2022-10-15T03:13:07.361Z,11.68
2022-10-15T03:17:23.632Z,11.69
2022-10-15T03:21:39.770Z,11.91
2022-10-15T03:25:55.848Z,11.63
2022-10-15T03:30:12.101Z,11.96
2022-10-15T03:34:28.032Z,12.10
2022-10-15T03:38:43.999Z,11.60
2022-10-15T03:43:00.217Z,11.79
2022-10-15T03:47:16.376Z,11.55
2022-10-15T03:51:32.371Z,11.55
2022-10-15T03:55:48.520Z,11.41
2022-10-15T04:00:06.654Z,11.43
2022-10-15T04:04:22.634Z,10.86
2022-10-15T04:08:38.629Z,11.53
2022-10-15T04:12:54.636Z,11.30
2022-10-15T04:17:10.852Z,11.76
2022-10-15T04:21:27.031Z,11.44
2022-10-15T04:25:42.953Z,10.98
2022-10-15T04:29:58.981Z,11.28
2022-10-15T04:34:14.968Z,11.13
2022-10-15T04:38:31.195Z,11.25
2022-10-15T04:42:47.150Z,11.21
2022-10-15T04:47:03.143Z,11.30
2022-10-15T04:51:22.132Z,11.14
2022-10-15T04:55:38.153Z,11.27
2022-10-15T04:59:56.947Z,11.32
2022-10-15T05:04:14.221Z,11.02
2022-10-15T05:08:34.078Z,11.60
2022-10-15T05:12:52.653Z,11.83
2022-10-15T05:17:10.236Z,11.70
2022-10-15T05:21:26.282Z,12.03
2022-10-15T05:25:42.262Z,12.27
2022-10-15T05:29:58.929Z,12.36
2022-10-15T05:34:15.089Z,12.42
2022-10-15T05:38:31.137Z,12.16
2022-10-15T05:47:14.373Z,12.22
2022-10-15T05:51:30.353Z,11.85
2022-10-15T05:55:46.332Z,12.30
2022-10-15T06:00:02.612Z,12.50
2022-10-15T06:04:18.588Z,12.61
2022-10-15T06:08:34.684Z,12.51
2022-10-15T06:12:51.420Z,12.66
2022-10-15T06:17:07.344Z,12.92
2022-10-15T06:21:23.386Z,13.07
2022-10-15T06:25:39.462Z,13.01
2022-10-15T06:29:55.509Z,13.09
2022-10-15T06:34:11.440Z,13.34
2022-10-15T06:38:30.587Z,13.44
2022-10-15T06:42:46.568Z,13.44
2022-10-15T06:47:02.626Z,13.08
2022-10-15T06:51:18.604Z,13.18
2022-10-15T06:55:36.091Z,13.65
2022-10-15T06:59:52.393Z,14.09
2022-10-15T07:04:08.475Z,14.23
2022-10-15T07:08:25.871Z,14.36
2022-10-15T07:12:41.860Z,14.41
2022-10-15T07:16:59.219Z,14.47
2022-10-15T07:21:15.381Z,14.48
2022-10-15T07:25:31.438Z,14.65
2022-10-15T07:29:47.540Z,14.97
2022-10-15T07:34:03.560Z,15.06
2022-10-15T07:38:19.552Z,15.28
2022-10-15T07:42:35.603Z,15.52
2022-10-15T07:46:51.544Z,15.65
2022-10-15T07:51:07.985Z,16.00
2022-10-15T07:55:23.942Z,16.19
2022-10-15T07:59:39.870Z,16.36
2022-10-15T08:03:55.868Z,16.53
2022-10-15T08:08:11.822Z,16.55
2022-10-15T08:12:27.883Z,16.72
2022-10-15T08:16:43.873Z,16.81
2022-10-15T08:21:02.870Z,16.98
2022-10-15T08:25:18.875Z,17.25
2022-10-15T08:29:34.871Z,17.68
2022-10-15T08:33:50.883Z,17.80
2022-10-15T08:38:06.838Z,18.20
2022-10-15T08:42:37.558Z,18.39
2022-10-15T08:46:59.468Z,18.50
2022-10-15T08:51:24.799Z,18.96
2022-10-15T08:55:44.537Z,19.20
2022-10-15T09:00:12.700Z,19.56
2022-10-15T09:04:47.564Z,19.92
2022-10-15T09:09:15.042Z,20.47
2022-10-15T09:13:40.666Z,20.72
2022-10-15T09:17:57.040Z,21.36
2022-10-15T09:22:18.490Z,21.18
2022-10-15T09:26:52.760Z,21.54
2022-10-15T09:31:10.670Z,21.81
2022-10-15T09:35:37.408Z,21.80
2022-10-15T09:40:14.621Z,21.42
2022-10-15T09:44:38.011Z,21.43
2022-10-15T09:49:08.812Z,21.27
2022-10-15T09:53:45.809Z,21.18
2022-10-15T09:58:27.995Z,21.26
2022-10-15T10:02:44.025Z,21.54
2022-10-15T10:07:03.124Z,21.86
2022-10-15T10:11:19.610Z,21.59
2022-10-15T10:15:41.490Z,22.19
2022-10-15T10:20:24.751Z,21.59
2022-10-15T10:24:40.926Z,21.75
2022-10-15T10:29:04.900Z,21.49
2022-10-15T10:33:34.977Z,21.03
2022-10-15T10:37:52.218Z,21.28
2022-10-15T10:42:14.949Z,21.32
2022-10-15T10:46:30.861Z,21.42
2022-10-15T10:50:46.833Z,21.12
2022-10-15T10:55:16.599Z,21.76
2022-10-15T10:59:38.150Z,21.82
2022-10-15T11:03:54.279Z,21.13
2022-10-15T11:08:41.461Z,20.92
2022-10-15T11:13:15.369Z,21.20
2022-10-15T11:17:37.063Z,21.01
2022-10-15T11:22:14.745Z,20.85
2022-10-15T11:26:59.232Z,21.22
2022-10-15T11:32:02.638Z,20.85
2022-10-15T11:36:32.504Z,20.21
2022-10-15T11:41:14.421Z,20.27
2022-10-15T11:45:54.821Z,20.42
2022-10-15T11:50:34.899Z,20.09
2022-10-15T11:55:01.661Z,20.11
2022-10-15T11:59:20.036Z,19.70
2022-10-15T12:03:45.945Z,19.39
2022-10-15T12:08:02.402Z,19.77
2022-10-15T12:12:41.218Z,19.35
2022-10-15T12:21:39.260Z,19.89
2022-10-15T12:25:55.263Z,19.96
2022-10-15T12:30:12.938Z,20.30
2022-10-15T12:34:41.276Z,20.33
2022-10-15T12:39:11.541Z,20.15
2022-10-15T12:43:52.031Z,19.92
2022-10-15T12:48:16.901Z,19.86
2022-10-15T12:53:34.641Z,20.11
2022-10-15T12:58:02.210Z,19.84
2022-10-15T13:07:04.197Z,19.69
2022-10-15T13:11:29.233Z,19.55
2022-10-15T13:15:56.007Z,19.94
2022-10-15T13:20:34.584Z,19.84
2022-10-15T13:24:50.572Z,20.00
2022-10-15T13:29:06.498Z,20.15
2022-10-15T13:33:22.528Z,19.99
2022-10-15T13:37:40.533Z,20.32
2022-10-15T13:42:21.801Z,20.27
2022-10-15T13:46:39.717Z,20.15
2022-10-15T13:51:04.834Z,19.90
2022-10-15T13:55:26.543Z,20.48
2022-10-15T13:59:44.452Z,20.49
2022-10-15T14:04:02.498Z,20.49
2022-10-15T14:08:28.176Z,20.42
2022-10-15T14:12:44.146Z,20.12
2022-10-15T14:17:03.191Z,20.29
2022-10-15T14:21:31.038Z,19.99
2022-10-15T14:25:51.994Z,20.21
2022-10-15T14:30:18.437Z,19.87
2022-10-15T14:34:34.308Z,19.48
2022-10-15T14:38:53.967Z,19.73
2022-10-15T14:43:18.546Z,19.39
2022-10-15T14:47:34.622Z,19.83
2022-10-15T14:51:55.859Z,19.40
2022-10-15T14:56:19.388Z,19.29
2022-10-15T15:00:43.124Z,19.22
2022-10-15T15:05:14.624Z,19.13
2022-10-15T15:09:30.752Z,19.23
2022-10-15T15:13:48.854Z,19.14
2022-10-15T15:18:04.909Z,19.30
2022-10-15T15:22:34.435Z,19.48
2022-10-15T15:26:50.355Z,19.40
2022-10-15T15:31:15.784Z,18.84
2022-10-15T15:35:57.778Z,18.65
2022-10-15T15:40:14.220Z,18.67
2022-10-15T15:44:30.147Z,18.95
2022-10-15T15:48:46.184Z,19.25
2022-10-15T15:53:02.579Z,18.98
2022-10-15T15:57:18.528Z,19.29
2022-10-15T16:01:34.552Z,19.25
2022-10-15T16:10:12.755Z,19.03
2022-10-15T16:14:28.990Z,19.08
2022-10-15T16:18:45.032Z,19.07
2022-10-15T16:23:00.935Z,19.25
2022-10-15T16:27:16.867Z,19.29
2022-10-15T16:31:36.671Z,19.06
2022-10-15T16:35:53.774Z,18.64
2022-10-15T16:40:10.378Z,19.09
2022-10-15T16:44:26.328Z,18.97
2022-10-15T16:48:42.400Z,18.91
2022-10-15T16:52:58.364Z,18.89
2022-10-15T16:57:14.368Z,18.61
2022-10-15T17:01:30.567Z,18.45
2022-10-15T17:05:46.812Z,18.84
2022-10-15T17:10:02.822Z,18.67
2022-10-15T17:14:19.121Z,18.75
2022-10-15T17:18:35.108Z,18.98
2022-10-15T17:22:51.095Z,18.68
2022-10-15T17:27:07.374Z,18.98
2022-10-15T17:31:25.994Z,18.77
2022-10-15T17:35:41.900Z,18.71
2022-10-15T17:39:58.375Z,18.63
2022-10-15T17:44:14.991Z,18.72
2022-10-15T17:48:31.739Z,18.73
2022-10-15T17:52:47.787Z,18.45
2022-10-15T17:57:03.815Z,18.67
2022-10-15T18:01:56.746Z,18.50
2022-10-15T18:06:12.944Z,18.73
2022-10-15T18:10:28.917Z,18.20
2022-10-15T18:14:44.858Z,18.39
2022-10-15T18:19:00.781Z,18.41
2022-10-15T18:23:16.709Z,18.00
2022-10-15T18:27:34.070Z,18.51
2022-10-15T18:31:54.764Z,18.02
2022-10-15T18:36:15.777Z,18.24
2022-10-15T18:40:38.667Z,18.34
2022-10-15T18:44:56.968Z,17.99
2022-10-15T18:49:14.709Z,18.22
2022-10-15T18:53:30.624Z,18.26
2022-10-15T18:57:46.839Z,18.02
2022-10-15T19:02:02.966Z,17.93
2022-10-15T19:06:20.436Z,18.35
2022-10-15T19:10:36.381Z,18.10
2022-10-15T19:14:52.337Z,17.94
2022-10-15T19:19:08.496Z,18.11
2022-10-15T19:23:24.901Z,18.21
2022-10-15T19:27:41.698Z,17.94
2022-10-15T19:31:57.714Z,18.09
2022-10-15T19:36:21.032Z,18.09
2022-10-15T19:40:40.263Z,18.11
2022-10-15T19:44:56.691Z,18.39
2022-10-15T19:49:13.698Z,18.05
2022-10-15T19:53:30.860Z,18.13
2022-10-15T19:57:47.072Z,17.82
2022-10-15T20:02:02.995Z,18.05
2022-10-15T20:06:19.461Z,17.93
2022-10-15T20:10:36.252Z,17.93
2022-10-15T20:14:52.273Z,17.84
2022-10-15T20:19:08.253Z,17.96
2022-10-15T20:23:26.456Z,17.88
2022-10-15T20:27:42.375Z,18.22
2022-10-15T20:32:05.762Z,18.15
2022-10-15T20:36:32.879Z,18.20
2022-10-15T20:40:48.840Z,18.19
2022-10-15T20:45:06.937Z,18.12
2022-10-15T20:49:27.802Z,18.16
2022-10-15T20:53:44.478Z,18.12
2022-10-15T20:58:00.420Z,18.00
2022-10-15T21:02:16.346Z,18.13
2022-10-15T21:06:32.495Z,18.20
2022-10-15T21:10:48.503Z,18.16
2022-10-15T21:15:04.805Z,18.35
2022-10-15T21:19:20.751Z,18.05
2022-10-15T21:23:38.211Z,18.18
2022-10-15T21:27:54.187Z,18.21
2022-10-15T21:32:10.336Z,18.21
2022-10-15T21:36:27.931Z,18.13
2022-10-15T21:40:45.259Z,18.51
2022-10-15T21:45:01.222Z,18.44
2022-10-15T21:49:17.190Z,18.38
2022-10-15T21:53:33.930Z,18.27
2022-10-15T21:57:49.885Z,18.12
2022-10-15T22:02:06.084Z,18.18
2022-10-15T22:06:22.309Z,18.21
2022-10-15T22:10:38.291Z,18.17
2022-10-15T22:14:54.368Z,18.08
2022-10-15T22:19:13.586Z,17.97
2022-10-15T22:23:29.608Z,17.86
2022-10-15T22:27:45.581Z,17.90
2022-10-15T22:32:01.597Z,17.93
2022-10-15T22:36:19.812Z,17.99
2022-10-15T22:40:35.861Z,17.93
2022-10-15T22:44:51.803Z,18.04
2022-10-15T22:49:08.938Z,17.91
2022-10-15T22:53:25.299Z,17.78
2022-10-15T22:57:41.315Z,17.67
2022-10-15T23:01:57.275Z,17.80
2022-10-15T23:06:14.181Z,17.75
2022-10-15T23:10:30.111Z,17.69
2022-10-15T23:14:47.643Z,17.63
2022-10-15T23:19:11.715Z,17.61
2022-10-15T23:23:27.714Z,17.43
2022-10-15T23:27:43.641Z,17.51
2022-10-15T23:31:59.582Z,17.49
2022-10-15T23:36:15.600Z,17.49
2022-10-15T23:40:31.688Z,17.24
2022-10-15T23:44:47.745Z,17.45
2022-10-15T23:49:04.290Z,17.44
2022-10-15T23:53:20.393Z,17.40
2022-10-15T23:57:36.556Z,17.41
